This is the latest recevied weather packets stored in our database for station/object KC0CAU. If no packets are shown the sender has not sent any weather packets the latest 10 day(s).
| Time | Temp. | Humidity | Pressure | Rain* | Wind** | Luminosity | Snow |
|---|---|---|---|---|---|---|---|
| 1777950059 | 4.44° C | 53% | 1012.5 hPa | 0 mm | - | - | - |
| 1777949157 | 4.44° C | 52% | 1012.1 hPa | 0 mm | - | - | - |
| 1777948256 | 5° C | 51% | 1011.7 hPa | 0 mm | - | - | - |
| 1777947352 | 5.56° C | 50% | 1011.4 hPa | 0 mm | - | - | - |
| 1777946451 | 5.56° C | 50% | 1011.3 hPa | 0 mm | - | - | - |
| 1777945553 | 6.11° C | 49% | 1011.1 hPa | 0 mm | - | - | - |
| 1777944646 | 6.11° C | 47% | 1010.9 hPa | 0 mm | - | - | - |
| 1777943747 | 6.67° C | 46% | 1010.8 hPa | 0 mm | - | - | - |
| 1777942864 | 6.67° C | 46% | 1010.6 hPa | 0 mm | - | - | - |
| 1777941943 | 7.22° C | 47% | 1010.6 hPa | 0 mm | - | - | - |
| 1777941046 | 7.78° C | 46% | 1010.6 hPa | 0 mm | - | - | - |
| 1777940141 | 7.78° C | 46% | 1010.4 hPa | 0 mm | - | - | - |
| 1777939245 | 7.78° C | 46% | 1010.3 hPa | 0 mm | - | - | - |
| 1777938339 | 7.78° C | 46% | 1010.2 hPa | 0 mm | - | - | - |
| 1777937439 | 7.78° C | 46% | 1010.2 hPa | 0 mm | - | - | - |
| 1777936543 | 8.33° C | 46% | 1010 hPa | 0 mm | - | - | - |
| 1777935642 | 8.33° C | 46% | 1009.8 hPa | 0 mm | - | - | - |
| 1777934734 | 8.89° C | 43% | 1009.5 hPa | 0 mm | - | - | - |
| 1777933831 | 9.44° C | 45% | 1009.4 hPa | 0 mm | - | - | - |
| 1777932942 | 9.44° C | 46% | 1009.1 hPa | 0 mm | - | - | - |
| 1777932089 | 8.89° C | 48% | 1009.2 hPa | 0 mm | - | - | - |
| 1777931127 | 8.89° C | 49% | 1009.2 hPa | 0 mm | - | - | - |
| 1777930232 | 8.89° C | 49% | 1009.1 hPa | 0 mm | - | - | - |
| 1777929328 | 9.44° C | 48% | 1008.9 hPa | 0 mm | - | - | - |
| 1777928423 | 8.89° C | 49% | 1008.9 hPa | 0 mm | - | - | - |
* Rain latest hour (hover to see other rain measurements)
** Current wind speed in m/s (hover to see current wind gust speed)